Terminal Aerodrome Forecast
Issued by NWS

Home | Current Version | Previous Version | Text Only | Print | Product List | Glossary On
Versions: 1 2 3 4 5 6 7 8 9 10 11 12 13 14 15 16 17
000
FTUS43 KGRB 231138
TAFRHI
TAF
KRHI 231138Z 2312/2412 36006G14KT P6SM BKN010
      TEMPO 2312/2315 5SM -SN BR SCT015 BKN030
     FM231500 02007G14KT P6SM BKN030
     FM240700 06009G15KT P6SM -SN OVC025
     FM240900 06011G19KT 4SM -SN OVC015
     FM241100 06013G25KT 1 1/2SM -SN OVC010=

USA.gov is the U.S. government's official web portal to all federal, state and local government web resources and services.